地図

経路データ

SID SEASON NUMBER BASIN SUBBASIN NAME ISO_TIME NATURE LAT LON WMO_WIND WMO_PRES WMO_AGENCY TRACK_TYPE DIST2LAND LANDFALL IFLAG USA_AGENCY USA_ATCF_ID USA_LAT USA_LON USA_RECORD USA_STATUS USA_WIND USA_PRES USA_SSHS USA_R34_NE USA_R34_SE USA_R34_SW USA_R34_NW USA_R50_NE USA_R50_SE USA_R50_SW USA_R50_NW USA_R64_NE USA_R64_SE USA_R64_SW USA_R64_NW USA_POCI USA_ROCI USA_RMW USA_EYE TOKYO_LAT TOKYO_LON TOKYO_GRADE TOKYO_WIND TOKYO_PRES TOKYO_R50_DIR TOKYO_R50_LONG TOKYO_R50_SHORT TOKYO_R30_DIR TOKYO_R30_LONG TOKYO_R30_SHORT TOKYO_LAND CMA_LAT CMA_LON CMA_CAT CMA_WIND CMA_PRES HKO_LAT HKO_LON HKO_CAT HKO_WIND HKO_PRES NEWDELHI_LAT NEWDELHI_LON NEWDELHI_GRADE NEWDELHI_WIND NEWDELHI_PRES NEWDELHI_CI NEWDELHI_DP NEWDELHI_POCI REUNION_LAT REUNION_LON REUNION_TYPE REUNION_WIND REUNION_PRES REUNION_TNUM REUNION_CI REUNION_RMW REUNION_R34_NE REUNION_R34_SE REUNION_R34_SW REUNION_R34_NW REUNION_R50_NE REUNION_R50_SE REUNION_R50_SW REUNION_R50_NW REUNION_R64_NE REUNION_R64_SE REUNION_R64_SW REUNION_R64_NW BOM_LAT BOM_LON BOM_TYPE BOM_WIND BOM_PRES BOM_TNUM BOM_CI BOM_RMW BOM_R34_NE BOM_R34_SE BOM_R34_SW BOM_R34_NW BOM_R50_NE BOM_R50_SE BOM_R50_SW BOM_R50_NW BOM_R64_NE BOM_R64_SE BOM_R64_SW BOM_R64_NW BOM_ROCI BOM_POCI BOM_EYE BOM_POS_METHOD BOM_PRES_METHOD NADI_LAT NADI_LON NADI_CAT NADI_WIND NADI_PRES WELLINGTON_LAT WELLINGTON_LON WELLINGTON_WIND WELLINGTON_PRES DS824_LAT DS824_LON DS824_STAGE DS824_WIND DS824_PRES TD9636_LAT TD9636_LON TD9636_STAGE TD9636_WIND TD9636_PRES TD9635_LAT TD9635_LON TD9635_WIND TD9635_PRES TD9635_ROCI NEUMANN_LAT NEUMANN_LON NEUMANN_CLASS NEUMANN_WIND NEUMANN_PRES MLC_LAT MLC_LON MLC_CLASS MLC_WIND MLC_PRES USA_GUST BOM_GUST BOM_GUST_PER REUNION_GUST REUNION_GUST_PER USA_SEAHGT USA_SEARAD_NE USA_SEARAD_SE USA_SEARAD_SW USA_SEARAD_NW STORM_SPEED STORM_DIR
1967235N13130 1967 80 WP MM NOT_NAMED 1967-08-23 06:00:00 TS 13.4000 130.000 main 506 378 __O___________ -1 13.4000 130.000 0 1002 24 267
1967235N13130 1967 80 WP MM NOT_NAMED 1967-08-23 09:00:00 TS 13.3387 128.752 main 378 259 __P___________ -1 13.3387 128.752 0 1002 24 268
1967235N13130 1967 80 WP MM NOT_NAMED 1967-08-23 12:00:00 TS 13.3000 127.500 main 249 148 __O___________ -1 13.3000 127.500 0 1002 24 269
1967235N13130 1967 80 WP MM NOT_NAMED 1967-08-23 15:00:00 TS 13.2995 126.243 main 140 87 __P___________ -1 13.2995 126.243 0 1001 24 270
1967235N13130 1967 80 WP MM NOT_NAMED 1967-08-23 18:00:00 TS 13.3000 125.000 main 78 10 __O___________ -1 13.3000 125.000 0 1001 24 270
1967235N13130 1967 80 WP MM NOT_NAMED 1967-08-23 21:00:00 TS 13.2941 123.808 main 0 0 __P___________ -1 13.2941 123.808 0 1001 23 268
1967235N13130 1967 80 WP MM NOT_NAMED 1967-08-24 00:00:00 TS 13.2000 122.600 main 0 0 __O___________ -1 13.2000 122.600 0 1001 24 261
1967235N13130 1967 80 WP MM NOT_NAMED 1967-08-24 03:00:00 TS 12.9216 121.344 main 0 0 __P___________ -1 12.9216 121.344 0 1000 26 257
1967235N13130 1967 80 WP MM NOT_NAMED 1967-08-24 06:00:00 TS 12.6000 120.000 main 86 86 __O___________ -1 12.6000 120.000 0 1000 29 259
1967235N13130 1967 80 WP MM NOT_NAMED 1967-08-24 09:00:00 TS 12.3482 118.455 main 156 156 __P___________ -1 12.3482 118.455 0 1000 30 262
1967235N13130 1967 80 WP MM NOT_NAMED 1967-08-24 12:00:00 TS 12.2000 117.000 main 284 284 __O___________ -1 12.2000 117.000 0 1000 25 266
1967235N13130 1967 80 WP MM NOT_NAMED 1967-08-24 15:00:00 TS 12.1742 115.865 main 394 394 __P___________ -1 12.1742 115.865 0 1000 20 273
1967235N13130 1967 80 WP MM NOT_NAMED 1967-08-24 18:00:00 TS 12.3000 115.000 main 462 462 __O___________ -1 12.3000 115.000 0 1000 16 283
1967235N13130 1967 80 WP MM NOT_NAMED 1967-08-24 21:00:00 TS 12.5171 114.310 main 521 509 __P___________ -1 12.5171 114.310 0 999 12 320
1967235N13130 1967 80 WP MM NOT_NAMED 1967-08-25 00:00:00 TS 13.2286 114.214 main 510 474 O_OO_____O____ jtwc_wp WP401967 13.7000 114.800 TD -1 12.9000 113.800 1 23 998 13.6000 114.700 TD 25 1002 13.7000 114.800 TC 13 336
1967235N13130 1967 80 WP MM NOT_NAMED 1967-08-25 03:00:00 TS 13.7347 113.759 main 474 421 P_PP_____P____ WP401967 13.9681 114.030 TD -1 13.4697 113.377 1 23 998 13.7980 113.978 TD 25 1001 13.9681 114.030 TC 14 314
1967235N13130 1967 80 WP MM NOT_NAMED 1967-08-25 06:00:00 TS 14.1692 113.208 main 422 372 O_OO_____O____ jtwc_wp WP401967 14.3000 113.300 TD -1 14.1000 113.000 1 23 998 14.0000 113.300 TD 25 1000 14.3000 113.300 TC 14 308
1967235N13130 1967 80 WP MM NOT_NAMED 1967-08-25 09:00:00 TS 14.5854 112.628 main 364 321 P_PP_____P____ WP401967 14.7347 112.635 TD -1 14.6525 112.550 1 23 998 14.2197 112.692 TD 25 999 14.7347 112.635 TC 14 307
1967235N13130 1967 80 WP MM NOT_NAMED 1967-08-25 12:00:00 TS 15.0000 112.050 main 324 266 O_OO_____O____ jtwc_wp WP401967 15.2000 112.000 TD -1 15.1000 112.100 1 23 998 14.5000 112.100 TD 25 998 15.2000 112.000 TC 14 306
1967235N13130 1967 80 WP MM NOT_NAMED 1967-08-25 15:00:00 TS 15.3810 111.475 main 269 221 P_PP_____P____ WP401967 15.6373 111.350 TD -1 15.3721 111.729 1 23 999 14.8773 111.472 TD 25 999 15.6373 111.350 TC 13 303
1967235N13130 1967 80 WP MM NOT_NAMED 1967-08-25 18:00:00 TS 15.7250 110.875 main 221 174 O_OO_____O____ jtwc_wp WP401967 16.0000 110.700 TD -1 15.6000 111.300 1 23 1000 15.3000 110.800 TD 25 1000 16.0000 110.700 TC 14 298
1967235N13130 1967 80 WP MM NOT_NAMED 1967-08-25 21:00:00 TS 16.0292 110.224 main 165 139 P_PP_____P____ WP401967 16.2297 110.057 TD -1 15.9422 110.725 1 23 1000 15.7150 110.058 TD 25 1000 16.2297 110.057 TC 14 294
1967235N13130 1967 80 WP MM NOT_NAMED 1967-08-26 00:00:00 TS 16.3000 109.562 main 139 85 O_OO_____O____ jtwc_wp WP401967 16.4000 109.400 TD -1 16.3000 110.000 1 23 1000 16.1000 109.300 TD 25 1000 16.4000 109.400 TC 14 293
1967235N13130 1967 80 WP MM NOT_NAMED 1967-08-26 03:00:00 TS 16.5782 108.865 main 92 55 P_PP_____P____ WP401967 16.5905 108.710 TD -1 16.6447 109.160 1 1000 16.4203 108.585 TD 25 1000 16.5905 108.710 TC 15 291
1967235N13130 1967 80 WP MM NOT_NAMED 1967-08-26 06:00:00 TS 16.8333 108.083 main 55 10 O_OO_____O____ jtwc_wp WP401967 16.8000 108.000 TD -1 16.9000 108.200 0 1000 16.7000 107.900 TD 25 1000 16.8000 108.000 TC 17 285
1967235N13130 1967 80 WP MM NOT_NAMED 1967-08-26 09:00:00 TS 16.9986 107.167 main 10 0 __P___________ WP401967 TD -1 16.9986 107.167 0 1001 TD TC 19 275
1967235N13130 1967 80 WP MM NOT_NAMED 1967-08-26 12:00:00 TS 17.0000 106.100 main 0 __O___________ -1 17.0000 106.100 0 1002 20 270

デジタル台風データ・検索

IBTrACS Databaseについて

本データベースは、米国NOAAが公開する1842年以降の世界の熱帯低気圧のベストトラックデータアーカイブInternational Best Track Archive for Climate Stewardship (IBTrACS)を、ウェブで閲覧しやすい形式に変換したものです。

最終更新日:2021-12-08